Portada
METAR-TAF:

METAR-TAF

Aeroports :

Marabá, Pará, Brasil

latitud: 05-21S, longitud: 049-09W, altitud: 95 m

Observació

L'informe es va fer fa 4 hores i 8 minuts, a les 01:00 UTC
Vent calma
Temperatura 23°C
Humitat 69%
Pressió 1015 hPa
Visibilitat 10 km o més
sense núvols per sota de 1500 mi sense presència de cumulonimbus.

METAR: SBMA 090100Z 00000KT CAVOK 23/17 Q1015

Hora: 02:08 (05:08 UTC)

Pronòstic

L'informe es va fer fa 8 hores i 8 minuts, a les 21:00 UTC
Pronòstic vàlid del 09 a les 00 UTC al 09 a les 12 UTC
Vent kt del Nord
Visibilitat 10 km o més
sense núvols per sota de 1500 mi sense presència de cumulonimbus.

TAF: SBMA 082100Z 0900/0912 00000KT CAVOK TX30/0900Z TN25/0908Z RMK PCZ

Observacions i pronòstics meteorològics de més de 4000 aeroports (METAR i TAF).

Les estacions disponibles són els punts grocs i vermells al mapa.

Posi el ratolí al punt desitjat per veure el nom de l'estació.

Feu clic per veure les observacions i els pronòstics meteorològics.

Per canviar el mapa: feu clic els botons verds amb una creu de color negre per apropar; al botó verd amb un guió per allunyar la imatge; o en les fletxes verdes per a mapes adjacents.


METAR-TAF: